Terminal Aerodrome Forecast
Issued by NWS

Home | Current Version | Previous Version | Graphics & Text | Print | Product List | Glossary On
Versions: 1 2 3 4 5 6 7 8 9 10 11 12 13 14 15 16
629
FTUS43 KBIS 232328
TAFJMS
TAF
KJMS 232328Z 2400/2424 30014G20KT P6SM SCT025 BKN050
     FM240200 28009KT P6SM SCT150
     FM241400 29013G19KT P6SM SCT150=

USA.gov is the U.S. government's official web portal to all federal, state and local government web resources and services.